首页
METAR-TAF:

METAR-TAF

机场 :

塔那那利佛/伊瓦图国际机场

塔那那利佛, 马达加斯加

纬度: 18-48S, 经度: 047-29E, 海拔: 1279米

当前天气观测

该预报发布于40分钟前的08:30 UTC
风速8节,风向东转东南,在东转东北之间变化
温度 21°C
湿度 64%
气压 1022 hPa
能见度10公里或以上
多云层高于2000英尺

METAR: FMMI 160830Z 12008KT 070V170 9999 BKN020 21/14 Q1022 NOSIG

时间: 12:10 (09:10 UTC)

预报

该预报发布于4小时和10分钟前的05:00 UTC
预报有效从16日的 06点(UTC)到 17日的 12点(UTC)
风速5节,风向多变
能见度10公里或以上
少量云层高于1700英尺
多云层高于2000英尺
几率 30%
从 17日的 02点(UTC)到 17日的 05点(UTC)
能見度: 4500
轻雾,

TAF: FMMI 160500Z 1606/1712 VRB05KT 9999 FEW017 BKN020 PROB30 1702/1705 4500 BR

超过4000个机场的气象观测和天气预报(METAR&TAF报告)。

可查询的气象台以黄色和红色小点在地图上表示。

将鼠标移到小点上方,可查看气象台名称。

然后点击查看天气观测和预报。

如需切换地图:点击带黑十字的绿色按钮放大地图;点击带横线的绿色按钮缩小地图;或者点击绿色箭头查看邻近地区的地图。


METAR-TAF: